createdAt,value
2022-10-01T00:06:16.562Z,97.30
2022-10-01T00:16:21.714Z,97.40
2022-10-01T00:26:27.140Z,97.60
2022-10-01T00:36:29.357Z,97.20
2022-10-01T00:46:45.028Z,97.60
2022-10-01T00:56:47.248Z,97.80
2022-10-01T01:06:57.459Z,98.00
2022-10-01T01:17:08.504Z,98.10
2022-10-01T01:27:25.592Z,98.00
2022-10-01T01:37:30.784Z,98.10
2022-10-01T01:47:33.402Z,97.70
2022-10-01T01:57:43.523Z,97.80
2022-10-01T02:08:18.830Z,97.90
2022-10-01T02:18:53.920Z,98.20
2022-10-01T02:29:03.311Z,97.90
2022-10-01T02:39:06.755Z,98.10
2022-10-01T02:49:09.417Z,97.80
2022-10-01T02:59:11.125Z,98.10
2022-10-01T03:09:13.616Z,98.00
2022-10-01T03:19:15.232Z,98.40
2022-10-01T03:29:16.959Z,98.40
2022-10-01T03:39:18.912Z,98.10
2022-10-01T03:59:22.749Z,98.10
2022-10-01T04:09:24.389Z,97.90
2022-10-01T04:19:26.015Z,97.90
2022-10-01T04:29:27.629Z,98.20
2022-10-01T04:39:29.243Z,97.80
2022-10-01T04:49:32.746Z,97.60
2022-10-01T04:59:34.348Z,97.90
2022-10-01T05:09:35.976Z,97.80
2022-10-01T05:19:37.597Z,97.60
2022-10-01T05:29:42.632Z,97.60
2022-10-01T05:39:44.245Z,97.50
2022-10-01T05:49:45.870Z,96.90
2022-10-01T05:59:47.497Z,97.10
2022-10-01T06:09:49.288Z,96.80
2022-10-01T06:19:51.739Z,96.50
2022-10-01T06:29:53.370Z,96.40
2022-10-01T06:39:54.984Z,96.30
2022-10-01T06:49:57.334Z,96.70
2022-10-01T06:59:59.447Z,96.70
2022-10-01T07:10:02.292Z,97.10
2022-10-01T07:20:04.250Z,97.30
2022-10-01T07:30:07.489Z,97.80
2022-10-01T07:40:09.474Z,98.00
2022-10-01T07:50:11.087Z,98.50
2022-10-01T08:00:12.794Z,98.90
2022-10-01T08:10:15.923Z,99.00
2022-10-01T08:20:17.558Z,99.50
2022-10-01T08:30:19.185Z,99.70
2022-10-01T08:40:21.591Z,99.80
2022-10-01T08:50:32.222Z,99.70
2022-10-01T09:00:39.024Z,99.90
2022-10-01T09:10:51.498Z,99.90
2022-10-01T09:20:57.330Z,99.80
2022-10-01T09:31:18.265Z,99.90
2022-10-01T09:41:20.029Z,99.70
2022-10-01T09:51:25.263Z,99.80
2022-10-01T10:01:45.042Z,99.80
2022-10-01T10:11:46.875Z,99.90
2022-10-01T10:21:54.091Z,99.90
2022-10-01T10:31:56.022Z,99.90
2022-10-01T10:42:00.154Z,99.90
2022-10-01T10:52:02.349Z,99.90
2022-10-01T11:02:07.812Z,99.90
2022-10-01T11:12:28.914Z,99.90
2022-10-01T11:22:57.610Z,99.90
2022-10-01T11:33:03.517Z,99.90
2022-10-01T11:43:11.663Z,99.90
2022-10-01T11:53:21.085Z,99.90
2022-10-01T12:03:30.058Z,99.90
2022-10-01T12:13:40.158Z,99.90
2022-10-01T12:23:51.432Z,99.90
2022-10-01T12:34:05.465Z,99.90
2022-10-01T12:44:29.926Z,99.90
2022-10-01T12:54:50.504Z,99.90
2022-10-01T13:05:23.609Z,99.90
2022-10-01T13:15:47.527Z,99.90
2022-10-01T13:26:05.279Z,99.90
2022-10-01T13:36:09.167Z,99.90
2022-10-01T13:46:11.396Z,99.90
2022-10-01T13:56:28.317Z,99.90
2022-10-01T14:06:37.291Z,99.90
2022-10-01T14:16:45.941Z,99.90
2022-10-01T14:27:07.904Z,99.90
2022-10-01T14:37:17.169Z,99.90
2022-10-01T14:47:24.431Z,99.90
2022-10-01T14:57:34.964Z,99.90
2022-10-01T15:07:36.844Z,99.90
2022-10-01T15:17:42.217Z,99.90
2022-10-01T15:27:43.996Z,99.90
2022-10-01T15:37:50.273Z,99.90
2022-10-01T15:47:56.758Z,99.90
2022-10-01T15:58:10.057Z,99.90
2022-10-01T16:08:21.818Z,99.90
2022-10-01T16:18:24.685Z,99.90
2022-10-01T16:28:31.141Z,99.90
2022-10-01T16:38:33.501Z,99.90
2022-10-01T16:48:35.124Z,99.90
2022-10-01T16:58:39.937Z,99.90
2022-10-01T17:08:42.448Z,99.90
2022-10-01T17:18:44.060Z,99.90
2022-10-01T17:28:45.830Z,99.90
2022-10-01T17:38:47.554Z,99.90
2022-10-01T17:48:49.694Z,99.90
2022-10-01T17:58:53.896Z,99.90
2022-10-01T18:08:56.664Z,99.90
2022-10-01T18:29:24.172Z,99.90
2022-10-01T18:39:38.367Z,99.90
2022-10-01T18:49:54.950Z,99.90
2022-10-01T19:00:09.050Z,99.90
2022-10-01T19:10:25.624Z,99.90
2022-10-01T19:20:58.175Z,99.90
2022-10-01T19:31:12.646Z,99.90
2022-10-01T19:41:58.152Z,99.90
2022-10-01T19:52:03.371Z,99.90
2022-10-01T20:02:15.653Z,99.90
2022-10-01T20:12:30.918Z,99.90
2022-10-01T20:22:41.489Z,99.90
2022-10-01T20:33:03.117Z,99.90
2022-10-01T20:43:14.422Z,99.90
2022-10-01T20:53:38.717Z,99.90
2022-10-01T21:03:46.355Z,99.90
2022-10-01T21:13:52.652Z,99.90
2022-10-01T21:24:22.511Z,99.90
2022-10-01T21:34:50.124Z,99.90
2022-10-01T21:45:08.329Z,99.90
2022-10-01T21:55:37.871Z,99.90
2022-10-01T22:05:53.224Z,99.90
2022-10-01T22:16:07.595Z,99.90
2022-10-01T22:26:16.249Z,99.90
2022-10-01T22:36:31.306Z,99.90
2022-10-01T22:47:07.431Z,99.90
2022-10-01T22:57:37.075Z,99.90
2022-10-01T23:08:01.488Z,99.90
2022-10-01T23:18:24.778Z,99.90
2022-10-01T23:28:48.827Z,99.90
2022-10-01T23:39:21.162Z,99.90
2022-10-01T23:49:27.598Z,99.90
2022-10-01T23:59:48.464Z,99.90
